Tiempo atmosférico en la estación meteorológica de Coín , Málaga (219 m.)

Fecha
DESCASC
Temp. máxima en grados centígrados (hora)
DESCASC
Temp. mínima en grados centígrados (hora)
DESCASC
Temp. media en grados centígrados
DESCASC
Racha de viento máxima en m/sg (hora)
DESCASC
Velocidad máxima media en intervalos de 10 minutos(hora)
DESCASC
Precipitaciones diarias en mm
DESCASC
Precipitaciones de 00:00 a 06:00 en mm
DESCASC
Precipitaciones de 06:00 a 12:00 en mm
DESCASC
Precipitaciones de 12:00 a 18:00 en mm
DESCASC
Precipitaciones de 18:00 a 24:00 en mm
DESCASC
21-09-2017 29.6 (15:10) 16 (07:30) 22.8 -- (--) -- (--) 0 0 0 0 0
20-09-2017 29.1 (13:40) 16.7 (07:50) 22.9 -- (--) -- (--) 0 0 0 0 0
19-09-2017 30.4 (16:10) 18.8 (08:00) 24.6 -- (--) -- (--) 0 0 0 0 0
18-09-2017 32.5 (16:30) 15.7 (08:20) 24.1 -- (--) -- (--) 0 0 0 0 0
17-09-2017 29.3 (15:40) 15.2 (00:00) 22.2 -- (--) -- (--) 0 0 0 0 0
16-09-2017 29.4 (14:10) 16.5 (00:00) 22.9 -- (--) -- (--) 0 0 0 0 0
15-09-2017 32.7 (18:30) 21.1 (00:00) 26.9 -- (--) -- (--) 0 0 0 0 0
14-09-2017 36.2 (17:50) 18.2 (00:00) 27.2 -- (--) -- (--) 0 0 0 0 0
13-09-2017 30.3 (12:30) 19.2 (00:00) 24.8 -- (--) -- (--) 0 0 0 0 0
12-09-2017 37.7 (16:40) 20.6 (00:00) 29.2 -- (--) -- (--) 0 0 0 0 0
11-09-2017 33 (15:00) 17.6 (00:00) 25.3 -- (--) -- (--) 0 0 0 0 0
10-09-2017 31.3 (17:50) 17.8 (00:00) 24.5 -- (--) -- (--) 0 0 0 0 0
09-09-2017 32.7 (13:50) 20 (00:00) 26.4 -- (--) -- (--) 0 0 0 0 0
08-09-2017 30.7 (18:10) 19 (00:00) 24.9 -- (--) -- (--) 0 0 0 0 0
07-09-2017 29.2 (17:30) 19.7 (00:00) 24.5 -- (--) -- (--) 0 0 0 0 0
06-09-2017 32.2 (12:30) 19.3 (00:00) 25.8 -- (--) -- (--) 0 0 0 0 0
05-09-2017 31.9 (18:20) 22.2 (00:00) 27.1 -- (--) -- (--) 0 0 0 0 0
04-09-2017 37 (16:20) 20.6 (00:00) 28.8 -- (--) -- (--) 0 0 0 0 0
03-09-2017 30.6 (18:10) 20.3 (00:00) 25.4 -- (--) -- (--) 0 0 0 0 0
02-09-2017 28.8 (17:40) 22.4 (00:00) 25.6 -- (--) -- (--) 0 0 0 0 0
01-09-2017 30.4 (14:30) 20.3 (00:00) 25.3 -- (--) -- (--) 0 0 0 0 0
31-08-2017 32 (14:30) 19.5 (00:00) 25.8 -- (--) -- (--) 0 0 0 0 0
30-08-2017 30.3 (14:20) 19.3 (00:00) 24.8 -- (--) -- (--) 0 0 0 0 0
29-08-2017 29.2 (14:30) 17.1 (00:00) 23.2 -- (--) -- (--) 0 0 0 0 0
28-08-2017 27.1 (17:10) 20.4 (00:00) 23.8 -- (--) -- (--) 2 0 1.4 0.6 0
27-08-2017 33.4 (16:30) 22.9 (00:00) 28.2 -- (--) -- (--) 0.4 0 0 0.2 0.2
26-08-2017 34.7 (15:30) 21.6 (00:00) 28.2 -- (--) -- (--) 0 0 0 0 0
25-08-2017 32.8 (14:00) 20.6 (00:00) 26.7 -- (--) -- (--) 0 0 0 0 0
24-08-2017 33.9 (16:50) 19.8 (00:00) 26.9 -- (--) -- (--) 0 0 0 0 0

Gráficas

Temp. máximas Temp. mínimas Temp. medias Precipitaciones Rachas de viento máximas Velocidades máximas media en intervalos de 10 minutos

Datos horarios

Fecha y hora oficial Temperatura (ºC) Velocidad del viento (km/h) Dirección del viento Racha (km/h) Dirección de racha Precipitación (mm) Presión (hPa) Tendencia (hPa) Humedad (%)
2017-09-22 23:00:00 21 -- -- -- -- 0 -- -- 79
2017-09-22 22:00:00 20.9 -- -- -- -- 0 -- -- 81
2017-09-22 21:00:00 21.2 -- -- -- -- 0 -- -- 78
2017-09-22 20:00:00 22.7 -- -- -- -- 0 -- -- 64
2017-09-22 19:00:00 25.2 -- -- -- -- 0 -- -- 49
2017-09-22 18:00:00 26.2 -- -- -- -- 0 -- -- 46
2017-09-22 17:00:00 26.8 -- -- -- -- 0 -- -- 45
2017-09-22 16:00:00 26.4 -- -- -- -- 0 -- -- 46
2017-09-22 15:00:00 25.7 -- -- -- -- 0 -- -- 51
2017-09-22 14:00:00 26 -- -- -- -- 0 -- -- 51
2017-09-22 13:00:00 26.2 -- -- -- -- 0 -- -- 50
2017-09-22 12:00:00 25.9 -- -- -- -- 0 -- -- 45
2017-09-22 11:00:00 24.6 -- -- -- -- 0 -- -- 41
2017-09-22 10:00:00 20.9 -- -- -- -- 0 -- -- 43
2017-09-22 09:00:00 17.8 -- -- -- -- 0 -- -- 58
2017-09-22 08:00:00 16.3 -- -- -- -- 0 -- -- 60
2017-09-22 07:00:00 16.3 -- -- -- -- 0 -- -- 65
2017-09-22 06:00:00 16.5 -- -- -- -- 0 -- -- 67
2017-09-22 05:00:00 17.2 -- -- -- -- 0 -- -- 64
2017-09-22 04:00:00 17.6 -- -- -- -- 0 -- -- 62
2017-09-22 03:00:00 18.2 -- -- -- -- 0 -- -- 60
2017-09-22 02:00:00 18.5 -- -- -- -- 0 -- -- 62
2017-09-22 01:00:00 19.1 -- -- -- -- 0 -- -- 66
2017-09-22 00:00:00 19.9 -- -- -- -- 0 -- -- 70
2017-09-21 23:00:00 20.7 -- -- -- -- 0 -- -- 68
2017-09-21 22:00:00 21.5 -- -- -- -- 0 -- -- 62
2017-09-21 21:00:00 22.4 -- -- -- -- 0 -- -- 62
2017-09-21 20:00:00 23.9 -- -- -- -- 0 -- -- 52
2017-09-21 19:00:00 26.8 -- -- -- -- 0 -- -- 43
2017-09-21 18:00:00 28 -- -- -- -- 0 -- -- 32
2017-09-21 17:00:00 29.2 -- -- -- -- 0 -- -- 27
2017-09-21 16:00:00 27.5 -- -- -- -- 0 -- -- 30
2017-09-21 15:00:00 29.1 -- -- -- -- 0 -- -- 30
2017-09-21 14:00:00 27.9 -- -- -- -- 0 -- -- 34
2017-09-21 13:00:00 27.6 -- -- -- -- 0 -- -- 34
2017-09-21 12:00:00 26.2 -- -- -- -- 0 -- -- 34
2017-09-21 11:00:00 23.7 -- -- -- -- 0 -- -- 36
2017-09-21 10:00:00 20.9 -- -- -- -- 0 -- -- 43
2017-09-21 09:00:00 17.5 -- -- -- -- 0 -- -- 51
2017-09-21 08:00:00 16 -- -- -- -- 0 -- -- 55
2017-09-21 07:00:00 16.5 -- -- -- -- 0 -- -- 54
2017-09-21 06:00:00 16.5 -- -- -- -- 0 -- -- 55
2017-09-21 05:00:00 16.5 -- -- -- -- 0 -- -- 55
2017-09-21 04:00:00 17.1 -- -- -- -- 0 -- -- 53
2017-09-21 03:00:00 17.2 -- -- -- -- 0 -- -- 55
2017-09-21 02:00:00 17.6 -- -- -- -- 0 -- -- 51
2017-09-21 01:00:00 18 -- -- -- -- 0 -- -- 49
2017-09-21 00:00:00 18.8 -- -- -- -- 0 -- -- 50
2017-09-20 23:00:00 19.7 -- -- -- -- 0 -- -- 45
2017-09-20 22:00:00 20.8 -- -- -- -- 0 -- -- 45
2017-09-20 21:00:00 21.7 -- -- -- -- 0 -- -- 57
2017-09-20 20:00:00 24.3 -- -- -- -- 0 -- -- 40
2017-09-20 19:00:00 24.9 -- -- -- -- 0 -- -- 39
2017-09-20 18:00:00 27.4 -- -- -- -- 0 -- -- 33
2017-09-20 17:00:00 28.3 -- -- -- -- 0 -- -- 37
2017-09-20 16:00:00 27.4 -- -- -- -- 0 -- -- 38
2017-09-20 15:00:00 27.7 -- -- -- -- 0 -- -- 33
2017-09-20 14:00:00 29.1 -- -- -- -- 0 -- -- 31
2017-09-20 13:00:00 28 -- -- -- -- 0 -- -- 32
2017-09-20 12:00:00 26.6 -- -- -- -- 0 -- -- 35
2017-09-20 11:00:00 24.2 -- -- -- -- 0 -- -- 40
2017-09-20 10:00:00 21.1 -- -- -- -- 0 -- -- 49
2017-09-20 09:00:00 18.1 -- -- -- -- 0 -- -- 56
2017-09-20 08:00:00 16.8 -- -- -- -- 0 -- -- 61
2017-09-20 07:00:00 17.2 -- -- -- -- 0 -- -- 58
2017-09-20 06:00:00 17.5 -- -- -- -- 0 -- -- 57
2017-09-20 05:00:00 18 -- -- -- -- 0 -- -- 56
2017-09-20 04:00:00 18.4 -- -- -- -- 0 -- -- 55
2017-09-20 03:00:00 18.4 -- -- -- -- 0 -- -- 55
2017-09-20 02:00:00 18.4 -- -- -- -- 0 -- -- 56
2017-09-20 01:00:00 18.8 -- -- -- -- 0 -- -- 55
2017-09-20 00:00:00 19.5 -- -- -- -- 0 -- -- 53
2017-09-19 23:00:00 20.1 -- -- -- -- 0 -- -- 52
2017-09-19 22:00:00 21.7 -- -- -- -- 0 -- -- 50
2017-09-19 21:00:00 23.6 -- -- -- -- 0 -- -- 43
2017-09-19 20:00:00 25.9 -- -- -- -- 0 -- -- 35
2017-09-19 19:00:00 28.6 -- -- -- -- 0 -- -- 29
2017-09-19 18:00:00 29.5 -- -- -- -- 0 -- -- 29
2017-09-19 17:00:00 30.1 -- -- -- -- 0 -- -- 25
2017-09-19 16:00:00 30 -- -- -- -- 0 -- -- 26
2017-09-19 15:00:00 29.7 -- -- -- -- 0 -- -- 26
2017-09-19 14:00:00 29.8 -- -- -- -- 0 -- -- 26
2017-09-19 13:00:00 29.6 -- -- -- -- 0 -- -- 28
2017-09-19 12:00:00 27.7 -- -- -- -- 0 -- -- 32
2017-09-19 11:00:00 25.8 -- -- -- -- 0 -- -- 36
2017-09-19 10:00:00 23 -- -- -- -- 0 -- -- 43
2017-09-19 09:00:00 20.1 -- -- -- -- 0 -- -- 48
2017-09-19 08:00:00 18.8 -- -- -- -- 0 -- -- 51
2017-09-19 07:00:00 19.7 -- -- -- -- 0 -- -- 47
2017-09-19 06:00:00 19.6 -- -- -- -- 0 -- -- 47
2017-09-19 05:00:00 19.6 -- -- -- -- 0 -- -- 50
2017-09-19 04:00:00 20 -- -- -- -- 0 -- -- 52
2017-09-19 03:00:00 21.2 -- -- -- -- 0 -- -- 49
2017-09-19 02:00:00 22.8 -- -- -- -- 0 -- -- 46
2017-09-19 01:00:00 23 -- -- -- -- 0 -- -- 45
2017-09-19 00:00:00 24.2 -- -- -- -- 0 -- -- 40
2017-09-18 23:00:00 24.4 -- -- -- -- 0 -- -- 41
2017-09-18 22:00:00 25.3 -- -- -- -- 0 -- -- 39
2017-09-18 21:00:00 26.3 -- -- -- -- 0 -- -- 32
2017-09-18 20:00:00 28.1 -- -- -- -- 0 -- -- 27
2017-09-18 19:00:00 29.9 -- -- -- -- 0 -- -- 24
2017-09-18 18:00:00 32.4 -- -- -- -- 0 -- -- 18
2017-09-18 17:00:00 32.4 -- -- -- -- 0 -- -- 15
2017-09-18 16:00:00 32 -- -- -- -- 0 -- -- 13
2017-09-18 15:00:00 31.3 -- -- -- -- 0 -- -- 14
2017-09-18 14:00:00 30.7 -- -- -- -- 0 -- -- 14
2017-09-18 13:00:00 29.1 -- -- -- -- 0 -- -- 18
2017-09-18 12:00:00 27.5 -- -- -- -- 0 -- -- 22
2017-09-18 11:00:00 25 -- -- -- -- 0 -- -- 27
2017-09-18 10:00:00 21.4 -- -- -- -- 0 -- -- 37
2017-09-18 09:00:00 17.8 -- -- -- -- 0 -- -- 53
2017-09-18 08:00:00 16.2 -- -- -- -- 0 -- -- 62
2017-09-18 07:00:00 16.8 -- -- -- -- 0 -- -- 61
2017-09-18 06:00:00 16.8 -- -- -- -- 0 -- -- 60
2017-09-18 05:00:00 17.2 -- -- -- -- 0 -- -- 59
2017-09-18 04:00:00 17.6 -- -- -- -- 0 -- -- 57
2017-09-18 03:00:00 18 -- -- -- -- 0 -- -- 56
2017-09-18 02:00:00 18.8 -- -- -- -- 0 -- -- 52
2017-09-18 01:00:00 18.9 -- -- -- -- 0 -- -- 52
2017-09-18 00:00:00 19.6 -- -- -- -- 0 -- -- 51
2017-09-17 23:00:00 19.5 -- -- -- -- 0 -- -- 55
2017-09-17 22:00:00 20.7 -- -- -- -- 0 -- -- 55
2017-09-17 21:00:00 22.5 -- -- -- -- 0 -- -- 54
2017-09-17 20:00:00 25.7 -- -- -- -- 0 -- -- 36
2017-09-17 19:00:00 27.2 -- -- -- -- 0 -- -- 36
2017-09-17 18:00:00 28.4 -- -- -- -- 0 -- -- 32
2017-09-17 17:00:00 27.7 -- -- -- -- 0 -- -- 29
2017-09-17 16:00:00 27 -- -- -- -- 0 -- -- 32
2017-09-17 15:00:00 28.6 -- -- -- -- 0 -- -- 24
2017-09-17 14:00:00 27.8 -- -- -- -- 0 -- -- 31
2017-09-17 13:00:00 26.5 -- -- -- -- 0 -- -- 39
2017-09-17 12:00:00 25.2 -- -- -- -- 0 -- -- 38
2017-09-17 11:00:00 23.4 -- -- -- -- 0 -- -- 45
2017-09-17 10:00:00 20.9 -- -- -- -- 0 -- -- 37
2017-09-17 09:00:00 16.7 -- -- -- -- 0 -- -- 47
2017-09-17 08:00:00 15.3 -- -- -- -- 0 -- -- 52
2017-09-17 07:00:00 15.9 -- -- -- -- 0 -- -- 50
2017-09-17 06:00:00 16.3 -- -- -- -- 0 -- -- 49
2017-09-17 05:00:00 16.8 -- -- -- -- 0 -- -- 46
2017-09-17 04:00:00 16.9 -- -- -- -- 0 -- -- 48
2017-09-17 03:00:00 17.8 -- -- -- -- 0 -- -- 46
2017-09-17 02:00:00 18.3 -- -- -- -- 0 -- -- 45
2017-09-17 01:00:00 19.3 -- -- -- -- 0 -- -- 43
2017-09-17 00:00:00 19.7 -- -- -- -- 0 -- -- 43
2017-09-16 23:00:00 20.4 -- -- -- -- 0 -- -- 42
2017-09-16 22:00:00 21.6 -- -- -- -- 0 -- -- 40
2017-09-16 21:00:00 22.3 -- -- -- -- 0 -- -- 47
2017-09-16 20:00:00 23.8 -- -- -- -- 0 -- -- 43
2017-09-16 19:00:00 26.8 -- -- -- -- 0 -- -- 34
2017-09-16 18:00:00 28.2 -- -- -- -- 0 -- -- 28
2017-09-16 17:00:00 28.3 -- -- -- -- 0 -- -- 29
2017-09-16 16:00:00 28.8 -- -- -- -- 0 -- -- 25
2017-09-16 15:00:00 29.1 -- -- -- -- 0 -- -- 24
2017-09-16 14:00:00 29.2 -- -- -- -- 0 -- -- 17
2017-09-16 13:00:00 27.8 -- -- -- -- 0 -- -- 18
2017-09-16 12:00:00 26.9 -- -- -- -- 0 -- -- 18
2017-09-16 11:00:00 24.8 -- -- -- -- 0 -- -- 24
2017-09-16 10:00:00 21.5 -- -- -- -- 0 -- -- 28
2017-09-16 09:00:00 18.2 -- -- -- -- 0 -- -- 32
2017-09-16 08:00:00 16.8 -- -- -- -- 0 -- -- 33
2017-09-16 07:00:00 17.4 -- -- -- -- 0 -- -- 33
2017-09-16 06:00:00 17.3 -- -- -- -- 0 -- -- 35
2017-09-16 05:00:00 18.2 -- -- -- -- 0 -- -- 34
2017-09-16 04:00:00 19.1 -- -- -- -- 0 -- -- 32
2017-09-16 03:00:00 19.1 -- -- -- -- 0 -- -- 31
2017-09-16 02:00:00 20.3 -- -- -- -- 0 -- -- 27
2017-09-16 01:00:00 21.7 -- -- -- -- 0 -- -- 23
2017-09-16 00:00:00 22.7 -- -- -- -- 0 -- -- 21
2017-09-15 23:00:00 22.4 -- -- -- -- 0 -- -- 16
2017-09-15 22:00:00 24.2 -- -- -- -- 0 -- -- 11
2017-09-15 21:00:00 25.6 -- -- -- -- 0 -- -- 9
2017-09-15 20:00:00 27.8 -- -- -- -- 0 -- -- 7
2017-09-15 19:00:00 31.5 -- -- -- -- 0 -- -- 9
2017-09-15 18:00:00 31.7 -- -- -- -- 0 -- -- 14
2017-09-15 17:00:00 31.6 -- -- -- -- 0 -- -- 16
2017-09-15 16:00:00 32.6 -- -- -- -- 0 -- -- 15
2017-09-15 15:00:00 30.9 -- -- -- -- 0 -- -- 20
2017-09-15 14:00:00 29.2 -- -- -- -- 0 -- -- 25
2017-09-15 13:00:00 29.3 -- -- -- -- 0 -- -- 33
2017-09-15 12:00:00 31.9 -- -- -- -- 0 -- -- 25
2017-09-15 11:00:00 29.8 -- -- -- -- 0 -- -- 26
2017-09-15 10:00:00 26.6 -- -- -- -- 0 -- -- 34
2017-09-15 09:00:00 23.1 -- -- -- -- 0 -- -- 38
2017-09-15 08:00:00 21.1 -- -- -- -- 0 -- -- 41
2017-09-15 07:00:00 21.9 -- -- -- -- 0 -- -- 37
2017-09-15 06:00:00 22.5 -- -- -- -- 0 -- -- 35
2017-09-15 05:00:00 23.1 -- -- -- -- 0 -- -- 32
2017-09-15 04:00:00 23.9 -- -- -- -- 0 -- -- 29
2017-09-15 03:00:00 24.7 -- -- -- -- 0 -- -- 29
2017-09-15 02:00:00 24.7 -- -- -- -- 0 -- -- 31
2017-09-15 01:00:00 26.2 -- -- -- -- 0 -- -- 29
2017-09-15 00:00:00 27.1 -- -- -- -- 0 -- -- 26
2017-09-14 23:00:00 28.1 -- -- -- -- 0 -- -- 28
2017-09-14 22:00:00 28.8 -- -- -- -- 0 -- -- 26
2017-09-14 21:00:00 30.7 -- -- -- -- 0 -- -- 23
2017-09-14 20:00:00 31.8 -- -- -- -- 0 -- -- 24
2017-09-14 19:00:00 33.8 -- -- -- -- 0 -- -- 22
2017-09-14 18:00:00 35 -- -- -- -- 0 -- -- 21
2017-09-14 17:00:00 35.2 -- -- -- -- 0 -- -- 22
2017-09-14 16:00:00 33.7 -- -- -- -- 0 -- -- 23
2017-09-14 15:00:00 33.8 -- -- -- -- 0 -- -- 23
2017-09-14 14:00:00 34 -- -- -- -- 0 -- -- 25
2017-09-14 13:00:00 33.4 -- -- -- -- 0 -- -- 24
2017-09-14 12:00:00 30.8 -- -- -- -- 0 -- -- 30
2017-09-14 11:00:00 27.7 -- -- -- -- 0 -- -- 41
2017-09-14 10:00:00 24.2 -- -- -- -- 0 -- -- 44
2017-09-14 09:00:00 20.9 -- -- -- -- 0 -- -- 54
2017-09-14 08:00:00 18.2 -- -- -- -- 0 -- -- 61
2017-09-14 07:00:00 18.7 -- -- -- -- 0 -- -- 66
2017-09-14 06:00:00 19 -- -- -- -- 0 -- -- 65
2017-09-14 05:00:00 19 -- -- -- -- 0 -- -- 68
2017-09-14 04:00:00 19.2 -- -- -- -- 0 -- -- 69
2017-09-14 03:00:00 19.6 -- -- -- -- 0 -- -- 70
2017-09-14 02:00:00 20 -- -- -- -- 0 -- -- 70
2017-09-14 01:00:00 20.5 -- -- -- -- 0 -- -- 68
2017-09-14 00:00:00 21 -- -- -- -- 0 -- -- 67
2017-09-13 23:00:00 21.4 -- -- -- -- 0 -- -- 70
2017-09-13 22:00:00 22.9 -- -- -- -- 0 -- -- 69
2017-09-13 21:00:00 23.7 -- -- -- -- 0 -- -- 66
2017-09-13 20:00:00 26.1 -- -- -- -- 0 -- -- 54
2017-09-13 19:00:00 28.6 -- -- -- -- 0 -- -- 45
2017-09-13 18:00:00 29.2 -- -- -- -- 0 -- -- 36
2017-09-13 17:00:00 29.4 -- -- -- -- 0 -- -- 35
2017-09-13 16:00:00 28.8 -- -- -- -- 0 -- -- 37
2017-09-13 15:00:00 28.9 -- -- -- -- 0 -- -- 38
2017-09-13 14:00:00 29.9 -- -- -- -- 0 -- -- 38
2017-09-13 13:00:00 29.6 -- -- -- -- 0 -- -- 41
2017-09-13 12:00:00 28.9 -- -- -- -- 0 -- -- 48
2017-09-13 11:00:00 27.5 -- -- -- -- 0 -- -- 53
2017-09-13 10:00:00 24.9 -- -- -- -- 0 -- -- 63
2017-09-13 09:00:00 21 -- -- -- -- 0 -- -- 77
2017-09-13 08:00:00 19.4 -- -- -- -- 0 -- -- 85
2017-09-13 07:00:00 19.2 -- -- -- -- 0 -- -- 82
2017-09-13 06:00:00 19.4 -- -- -- -- 0 -- -- 79
2017-09-13 05:00:00 19.5 -- -- -- -- 0 -- -- 75
2017-09-13 04:00:00 19.7 -- -- -- -- 0 -- -- 69
2017-09-13 03:00:00 20 -- -- -- -- 0 -- -- 53
2017-09-13 02:00:00 20.5 -- -- -- -- 0 -- -- 51
2017-09-13 01:00:00 21.4 -- -- -- -- 0 -- -- 50
2017-09-13 00:00:00 22.4 -- -- -- -- 0 -- -- 45
2017-09-12 23:00:00 23.1 -- -- -- -- 0 -- -- 46
2017-09-12 22:00:00 24.8 -- -- -- -- 0 -- -- 43
2017-09-12 21:00:00 27.4 -- -- -- -- 0 -- -- 36
2017-09-12 20:00:00 30.6 -- -- -- -- 0 -- -- 31
2017-09-12 19:00:00 34 -- -- -- -- 0 -- -- 25
2017-09-12 18:00:00 35.9 -- -- -- -- 0 -- -- 20
2017-09-12 17:00:00 37.4 -- -- -- -- 0 -- -- 14
2017-09-12 16:00:00 37.5 -- -- -- -- 0 -- -- 9
2017-09-12 15:00:00 36.4 -- -- -- -- 0 -- -- 11
2017-09-12 14:00:00 35.5 -- -- -- -- 0 -- -- 10
2017-09-12 13:00:00 34.3 -- -- -- -- 0 -- -- 19
2017-09-12 12:00:00 32.4 -- -- -- -- 0 -- -- 21
2017-09-12 11:00:00 30.8 -- -- -- -- 0 -- -- 25
2017-09-12 10:00:00 28 -- -- -- -- 0 -- -- 28
2017-09-12 09:00:00 24.2 -- -- -- -- 0 -- -- 35
2017-09-12 08:00:00 22.2 -- -- -- -- 0 -- -- 37
2017-09-12 07:00:00 22.3 -- -- -- -- 0 -- -- 36
2017-09-12 06:00:00 22.3 -- -- -- -- 0 -- -- 35
2017-09-12 05:00:00 22.8 -- -- -- -- 0 -- -- 35
2017-09-12 04:00:00 22.5 -- -- -- -- 0 -- -- 34
2017-09-12 03:00:00 21.5 -- -- -- -- 0 -- -- 37
2017-09-12 02:00:00 21.1 -- -- -- -- 0 -- -- 39
2017-09-12 01:00:00 21.4 -- -- -- -- 0 -- -- 40
2017-09-12 00:00:00 22 -- -- -- -- 0 -- -- 39
2017-09-11 23:00:00 22.8 -- -- -- -- 0 -- -- 37
2017-09-11 22:00:00 23.7 -- -- -- -- 0 -- -- 34
2017-09-11 21:00:00 24.8 -- -- -- -- 0 -- -- 29
2017-09-11 20:00:00 27.2 -- -- -- -- 0 -- -- 27
2017-09-11 19:00:00 31.4 -- -- -- -- 0 -- -- 23
2017-09-11 18:00:00 31.7 -- -- -- -- 0 -- -- 23
2017-09-11 17:00:00 31.4 -- -- -- -- 0 -- -- 24
2017-09-11 16:00:00 32.1 -- -- -- -- 0 -- -- 20
2017-09-11 15:00:00 33 -- -- -- -- 0 -- -- 16
2017-09-11 14:00:00 31.9 -- -- -- -- 0 -- -- 18
2017-09-11 13:00:00 30.3 -- -- -- -- 0 -- -- 19
2017-09-11 12:00:00 27.4 -- -- -- -- 0 -- -- 25
2017-09-11 11:00:00 25.2 -- -- -- -- 0 -- -- 31
2017-09-11 10:00:00 22.4 -- -- -- -- 0 -- -- 36
2017-09-11 09:00:00 19.5 -- -- -- -- 0 -- -- 41
2017-09-11 08:00:00 17.6 -- -- -- -- 0 -- -- 42
2017-09-11 07:00:00 19 -- -- -- -- 0 -- -- 38
2017-09-11 06:00:00 19.4 -- -- -- -- 0 -- -- 36
2017-09-11 05:00:00 19.7 -- -- -- -- 0 -- -- 35
2017-09-11 04:00:00 20.3 -- -- -- -- 0 -- -- 33
2017-09-11 03:00:00 20.4 -- -- -- -- 0 -- -- 33
2017-09-11 02:00:00 21 -- -- -- -- 0 -- -- 30
2017-09-11 01:00:00 21.8 -- -- -- -- 0 -- -- 29
2017-09-11 00:00:00 22.6 -- -- -- -- 0 -- -- 26
2017-09-10 23:00:00 23 -- -- -- -- 0 -- -- 26
2017-09-10 22:00:00 24.7 -- -- -- -- 0 -- -- 23
2017-09-10 21:00:00 25.8 -- -- -- -- 0 -- -- 22
2017-09-10 20:00:00 28 -- -- -- -- 0 -- -- 19
2017-09-10 19:00:00 29.8 -- -- -- -- 0 -- -- 18
2017-09-10 18:00:00 31.2 -- -- -- -- 0 -- -- 15
2017-09-10 17:00:00 30.9 -- -- -- -- 0 -- -- 14
2017-09-10 16:00:00 30.7 -- -- -- -- 0 -- -- 16
2017-09-10 15:00:00 29.9 -- -- -- -- 0 -- -- 17
2017-09-10 14:00:00 28.7 -- -- -- -- 0 -- -- 20
2017-09-10 13:00:00 26.7 -- -- -- -- 0 -- -- 26
2017-09-10 12:00:00 24.8 -- -- -- -- 0 -- -- 30
2017-09-10 11:00:00 22.9 -- -- -- -- 0 -- -- 34
2017-09-10 10:00:00 21.1 -- -- -- -- 0 -- -- 40
2017-09-10 09:00:00 19 -- -- -- -- 0 -- -- 44
2017-09-10 08:00:00 17.9 -- -- -- -- 0 -- -- 48
2017-09-10 07:00:00 19.1 -- -- -- -- 0 -- -- 44
2017-09-10 06:00:00 19.4 -- -- -- -- 0 -- -- 45
2017-09-10 05:00:00 20.7 -- -- -- -- 0 -- -- 40
2017-09-10 04:00:00 21.2 -- -- -- -- 0 -- -- 40
2017-09-10 03:00:00 21.6 -- -- -- -- 0 -- -- 44
2017-09-10 02:00:00 22.5 -- -- -- -- 0 -- -- 45
2017-09-10 01:00:00 23.4 -- -- -- -- 0 -- -- 45
2017-09-10 00:00:00 23.8 -- -- -- -- 0 -- -- 46
2017-09-09 23:00:00 24.5 -- -- -- -- 0 -- -- 44
2017-09-09 22:00:00 25.1 -- -- -- -- 0 -- -- 41
2017-09-09 21:00:00 25.6 -- -- -- -- 0 -- -- 41
2017-09-09 20:00:00 28.1 -- -- -- -- 0 -- -- 32
2017-09-09 19:00:00 30.3 -- -- -- -- 0 -- -- 23
2017-09-09 18:00:00 31.3 -- -- -- -- 0 -- -- 23
2017-09-09 17:00:00 31.1 -- -- -- -- 0 -- -- 21
2017-09-09 16:00:00 32.3 -- -- -- -- 0 -- -- 17
2017-09-09 15:00:00 32.1 -- -- -- -- 0 -- -- 12
2017-09-09 14:00:00 32.5 -- -- -- -- 0 -- -- 13
2017-09-09 13:00:00 31 -- -- -- -- 0 -- -- 16
2017-09-09 12:00:00 30.8 -- -- -- -- 0 -- -- 14
2017-09-09 11:00:00 28.8 -- -- -- -- 0 -- -- 19
2017-09-09 10:00:00 25.3 -- -- -- -- 0 -- -- 35
2017-09-09 09:00:00 22 -- -- -- -- 0 -- -- 40
2017-09-09 08:00:00 20.2 -- -- -- -- 0 -- -- 50
2017-09-09 07:00:00 20.5 -- -- -- -- 0 -- -- 57
2017-09-09 06:00:00 21.1 -- -- -- -- 0 -- -- 55
2017-09-09 05:00:00 20.8 -- -- -- -- 0 -- -- 66
2017-09-09 04:00:00 20.7 -- -- -- -- 0 -- -- 69
2017-09-09 03:00:00 21 -- -- -- -- 0 -- -- 71
2017-09-09 02:00:00 21.1 -- -- -- -- 0 -- -- 76
2017-09-09 01:00:00 22.1 -- -- -- -- 0 -- -- 74
2017-09-09 00:00:00 22.7 -- -- -- -- 0 -- -- 73
2017-09-08 23:00:00 23.7 -- -- -- -- 0 -- -- 70
2017-09-08 22:00:00 25 -- -- -- -- 0 -- -- 65
2017-09-08 21:00:00 25.7 -- -- -- -- 0 -- -- 63
2017-09-08 20:00:00 27.8 -- -- -- -- 0 -- -- 57
2017-09-08 19:00:00 29.9 -- -- -- -- 0 -- -- 51
2017-09-08 18:00:00 30.6 -- -- -- -- 0 -- -- 48
2017-09-08 17:00:00 30.5 -- -- -- -- 0 -- -- 49
2017-09-08 16:00:00 29.8 -- -- -- -- 0 -- -- 51
2017-09-08 15:00:00 29.4 -- -- -- -- 0 -- -- 50
2017-09-08 14:00:00 29.4 -- -- -- -- 0 -- -- 50
2017-09-08 13:00:00 29.9 -- -- -- -- 0 -- -- 45
2017-09-08 12:00:00 28.7 -- -- -- -- 0 -- -- 48
2017-09-08 11:00:00 26.4 -- -- -- -- 0 -- -- 55
2017-09-08 10:00:00 23.8 -- -- -- -- 0 -- -- 59
2017-09-08 09:00:00 20.6 -- -- -- -- 0 -- -- 73
2017-09-08 08:00:00 19.1 -- -- -- -- 0 -- -- 79
2017-09-08 07:00:00 19.5 -- -- -- -- 0 -- -- 75
2017-09-08 06:00:00 19.5 -- -- -- -- 0 -- -- 77
2017-09-08 05:00:00 19.8 -- -- -- -- 0 -- -- 80
2017-09-08 04:00:00 20.2 -- -- -- -- 0 -- -- 81
2017-09-08 03:00:00 20.8 -- -- -- -- 0 -- -- 80
2017-09-08 02:00:00 21.2 -- -- -- -- 0 -- -- 80
2017-09-08 01:00:00 21.8 -- -- -- -- 0 -- -- 78
2017-09-08 00:00:00 22.2 -- -- -- -- 0 -- -- 76
2017-09-07 23:00:00 23 -- -- -- -- 0 -- -- 75
2017-09-07 22:00:00 23.2 -- -- -- -- 0 -- -- 76
2017-09-07 21:00:00 24.2 -- -- -- -- 0 -- -- 72
2017-09-07 20:00:00 26.1 -- -- -- -- 0 -- -- 59
2017-09-07 19:00:00 28.1 -- -- -- -- 0 -- -- 52
2017-09-07 18:00:00 29 -- -- -- -- 0 -- -- 48
2017-09-07 17:00:00 29 -- -- -- -- 0 -- -- 48
2017-09-07 16:00:00 29.1 -- -- -- -- 0 -- -- 48
2017-09-07 15:00:00 28.4 -- -- -- -- 0 -- -- 50
2017-09-07 14:00:00 28.3 -- -- -- -- 0 -- -- 49
2017-09-07 13:00:00 28.5 -- -- -- -- 0 -- -- 50
2017-09-07 12:00:00 28.5 -- -- -- -- 0 -- -- 47
2017-09-07 11:00:00 27.7 -- -- -- -- 0 -- -- 39
2017-09-07 10:00:00 25 -- -- -- -- 0 -- -- 43
2017-09-07 09:00:00 21.6 -- -- -- -- 0 -- -- 50
2017-09-07 08:00:00 19.7 -- -- -- -- 0 -- -- 56
2017-09-07 07:00:00 19.9 -- -- -- -- 0 -- -- 56
2017-09-07 06:00:00 20.3 -- -- -- -- 0 -- -- 53
2017-09-07 05:00:00 20.6 -- -- -- -- 0 -- -- 53
2017-09-07 04:00:00 20.8 -- -- -- -- 0 -- -- 56
2017-09-07 03:00:00 21 -- -- -- -- 0 -- -- 53
2017-09-07 02:00:00 21.3 -- -- -- -- 0 -- -- 51
2017-09-07 01:00:00 21.9 -- -- -- -- 0 -- -- 50
2017-09-07 00:00:00 22.9 -- -- -- -- 0 -- -- 47
2017-09-06 23:00:00 23.8 -- -- -- -- 0 -- -- 42
2017-09-06 22:00:00 24.8 -- -- -- -- 0 -- -- 35
2017-09-06 21:00:00 25.9 -- -- -- -- 0 -- -- 33
2017-09-06 20:00:00 27.8 -- -- -- -- 0 -- -- 33
2017-09-06 19:00:00 29.7 -- -- -- -- 0 -- -- 31
2017-09-06 18:00:00 30.5 -- -- -- -- 0 -- -- 30
2017-09-06 17:00:00 31.5 -- -- -- -- 0 -- -- 27
2017-09-06 16:00:00 31.9 -- -- -- -- 0 -- -- 28
2017-09-06 15:00:00 31.3 -- -- -- -- 0 -- -- 31
2017-09-06 14:00:00 31.2 -- -- -- -- 0 -- -- 35
2017-09-06 13:00:00 31.2 -- -- -- -- 0 -- -- 34
2017-09-06 12:00:00 30.5 -- -- -- -- 0 -- -- 36
2017-09-06 11:00:00 28.2 -- -- -- -- 0 -- -- 48
2017-09-06 10:00:00 24.9 -- -- -- -- 0 -- -- 61
2017-09-06 09:00:00 21.4 -- -- -- -- 0 -- -- 73
2017-09-06 08:00:00 19.3 -- -- -- -- 0 -- -- 84
2017-09-06 07:00:00 19.7 -- -- -- -- 0 -- -- 82
2017-09-06 06:00:00 19.9 -- -- -- -- 0 -- -- 82
2017-09-06 05:00:00 20.1 -- -- -- -- 0 -- -- 80
2017-09-06 04:00:00 20.5 -- -- -- -- 0 -- -- 81
2017-09-06 03:00:00 21.1 -- -- -- -- 0 -- -- 83
2017-09-06 02:00:00 21.5 -- -- -- -- 0 -- -- 80
2017-09-06 01:00:00 22 -- -- -- -- 0 -- -- 76
2017-09-06 00:00:00 22.8 -- -- -- -- 0 -- -- 74
2017-09-05 23:00:00 23.4 -- -- -- -- 0 -- -- 74
2017-09-05 22:00:00 24.6 -- -- -- -- 0 -- -- 69
2017-09-05 21:00:00 26 -- -- -- -- 0 -- -- 63
2017-09-05 20:00:00 28.6 -- -- -- -- 0 -- -- 51
2017-09-05 19:00:00 30.9 -- -- -- -- 0 -- -- 49
2017-09-05 18:00:00 31.8 -- -- -- -- 0 -- -- 44
2017-09-05 17:00:00 30.9 -- -- -- -- 0 -- -- 46
2017-09-05 16:00:00 29.4 -- -- -- -- 0 -- -- 50
2017-09-05 15:00:00 28.2 -- -- -- -- 0 -- -- 54
2017-09-05 14:00:00 28.2 -- -- -- -- 0 -- -- 59
2017-09-05 13:00:00 27.3 -- -- -- -- 0 -- -- 61
2017-09-05 12:00:00 28.1 -- -- -- -- 0 -- -- 60
2017-09-05 11:00:00 26.8 -- -- -- -- 0 -- -- 67
2017-09-05 10:00:00 25.3 -- -- -- -- 0 -- -- 77
2017-09-05 09:00:00 23.1 -- -- -- -- 0 -- -- 79
2017-09-05 08:00:00 22.5 -- -- -- -- 0 -- -- 80
2017-09-05 07:00:00 22.3 -- -- -- -- 0 -- -- 80
2017-09-05 06:00:00 22.2 -- -- -- -- 0 -- -- 78
2017-09-05 05:00:00 22.5 -- -- -- -- 0 -- -- 72
2017-09-05 04:00:00 23.5 -- -- -- -- 0 -- -- 69
2017-09-05 03:00:00 24.7 -- -- -- -- 0 -- -- 47
2017-09-05 02:00:00 25.2 -- -- -- -- 0 -- -- 44
2017-09-05 01:00:00 26.3 -- -- -- -- 0 -- -- 39
2017-09-05 00:00:00 27.4 -- -- -- -- 0 -- -- 36
2017-09-04 23:00:00 27.6 -- -- -- -- 0 -- -- 36
2017-09-04 22:00:00 29.5 -- -- -- -- 0 -- -- 33
2017-09-04 21:00:00 30.9 -- -- -- -- 0 -- -- 27
2017-09-04 20:00:00 34 -- -- -- -- 0 -- -- 19
2017-09-04 19:00:00 35.4 -- -- -- -- 0 -- -- 18
2017-09-04 18:00:00 36.5 -- -- -- -- 0 -- -- 17
2017-09-04 17:00:00 36.7 -- -- -- -- 0 -- -- 17
2017-09-04 16:00:00 36.7 -- -- -- -- 0 -- -- 14
2017-09-04 15:00:00 35.9 -- -- -- -- 0 -- -- 9
2017-09-04 14:00:00 34.6 -- -- -- -- 0 -- -- 18
2017-09-04 13:00:00 33.5 -- -- -- -- 0 -- -- 21
2017-09-04 12:00:00 32 -- -- -- -- 0 -- -- 24
2017-09-04 11:00:00 30.2 -- -- -- -- 0 -- -- 32
2017-09-04 10:00:00 27.6 -- -- -- -- 0 -- -- 39
2017-09-04 09:00:00 23.5 -- -- -- -- 0 -- -- 49
2017-09-04 08:00:00 21.7 -- -- -- -- 0 -- -- 55
2017-09-04 07:00:00 21.4 -- -- -- -- 0 -- -- 68
2017-09-04 06:00:00 21 -- -- -- -- 0 -- -- 72
2017-09-04 05:00:00 20.9 -- -- -- -- 0 -- -- 78
2017-09-04 04:00:00 21.3 -- -- -- -- 0 -- -- 77
2017-09-04 03:00:00 21.7 -- -- -- -- 0 -- -- 76
2017-09-04 02:00:00 22.2 -- -- -- -- 0 -- -- 74
2017-09-04 01:00:00 22.3 -- -- -- -- 0 -- -- 75
2017-09-04 00:00:00 23.2 -- -- -- -- 0 -- -- 72
2017-09-03 23:00:00 24.2 -- -- -- -- 0 -- -- 67
2017-09-03 22:00:00 25.4 -- -- -- -- 0 -- -- 64
2017-09-03 21:00:00 26.1 -- -- -- -- 0 -- -- 63
2017-09-03 20:00:00 27 -- -- -- -- 0 -- -- 60
2017-09-03 19:00:00 29.4 -- -- -- -- 0 -- -- 52
2017-09-03 18:00:00 30.5 -- -- -- -- 0 -- -- 45
2017-09-03 17:00:00 30.5 -- -- -- -- 0 -- -- 44
2017-09-03 16:00:00 29.4 -- -- -- -- 0 -- -- 45
2017-09-03 15:00:00 29.5 -- -- -- -- 0 -- -- 44
2017-09-03 14:00:00 29.3 -- -- -- -- 0 -- -- 47
2017-09-03 13:00:00 28.7 -- -- -- -- 0 -- -- 51
2017-09-03 12:00:00 29 -- -- -- -- 0 -- -- 50
2017-09-03 11:00:00 27.1 -- -- -- -- 0 -- -- 62
2017-09-03 10:00:00 24.2 -- -- -- -- 0 -- -- 75
2017-09-03 09:00:00 21.7 -- -- -- -- 0 -- -- 83
2017-09-03 08:00:00 20.3 -- -- -- -- 0 -- -- 88
2017-09-03 07:00:00 20.3 -- -- -- -- 0 -- -- 89
2017-09-03 06:00:00 20.7 -- -- -- -- 0 -- -- 87
2017-09-03 05:00:00 21.1 -- -- -- -- 0 -- -- 85
2017-09-03 04:00:00 21.7 -- -- -- -- 0 -- -- 82
2017-09-03 03:00:00 21.8 -- -- -- -- 0 -- -- 81
2017-09-03 02:00:00 21.9 -- -- -- -- 0 -- -- 78
2017-09-03 01:00:00 22.4 -- -- -- -- 0 -- -- 76
2017-09-03 00:00:00 22.4 -- -- -- -- 0 -- -- 78
2017-09-02 23:00:00 22.7 -- -- -- -- 0 -- -- 74
2017-09-02 22:00:00 24 -- -- -- -- 0 -- -- 68
2017-09-02 21:00:00 25.1 -- -- -- -- 0 -- -- 65
2017-09-02 20:00:00 26.9 -- -- -- -- 0 -- -- 60
2017-09-02 19:00:00 27.6 -- -- -- -- 0 -- -- 57
2017-09-02 18:00:00 27.8 -- -- -- -- 0 -- -- 59
2017-09-02 17:00:00 27.5 -- -- -- -- 0 -- -- 57
2017-09-02 16:00:00 27.5 -- -- -- -- 0 -- -- 58
2017-09-02 15:00:00 27.4 -- -- -- -- 0 -- -- 59
2017-09-02 14:00:00 27 -- -- -- -- 0 -- -- 61
2017-09-02 13:00:00 27 -- -- -- -- 0 -- -- 63
2017-09-02 12:00:00 26.7 -- -- -- -- 0 -- -- 64
2017-09-02 11:00:00 26 -- -- -- -- 0 -- -- 66
2017-09-02 10:00:00 26 -- -- -- -- 0 -- -- 69
2017-09-02 09:00:00 23.8 -- -- -- -- 0 -- -- 82
2017-09-02 08:00:00 23.3 -- -- -- -- 0 -- -- 82
2017-09-02 07:00:00 23.5 -- -- -- -- 0 -- -- 84
2017-09-02 06:00:00 23.7 -- -- -- -- 0 -- -- 79
2017-09-02 05:00:00 23.7 -- -- -- -- 0 -- -- 78
2017-09-02 04:00:00 24 -- -- -- -- 0 -- -- 75
2017-09-02 03:00:00 24.2 -- -- -- -- 0 -- -- 73
2017-09-02 02:00:00 23.7 -- -- -- -- 0 -- -- 76
2017-09-02 01:00:00 23.4 -- -- -- -- 0 -- -- 75
2017-09-02 00:00:00 23.5 -- -- -- -- 0 -- -- 74
2017-09-01 23:00:00 24.5 -- -- -- -- 0 -- -- 70
2017-09-01 22:00:00 24.8 -- -- -- -- 0 -- -- 68
2017-09-01 21:00:00 24.9 -- -- -- -- 0 -- -- 67
2017-09-01 20:00:00 26.7 -- -- -- -- 0 -- -- 58
2017-09-01 19:00:00 28.4 -- -- -- -- 0 -- -- 52
2017-09-01 18:00:00 28.4 -- -- -- -- 0 -- -- 51
2017-09-01 17:00:00 29.4 -- -- -- -- 0 -- -- 49
2017-09-01 16:00:00 29.3 -- -- -- -- 0 -- -- 47
2017-09-01 15:00:00 29.8 -- -- -- -- 0 -- -- 46
2017-09-01 14:00:00 30.1 -- -- -- -- 0 -- -- 43
2017-09-01 13:00:00 29.4 -- -- -- -- 0 -- -- 48
2017-09-01 12:00:00 27.7 -- -- -- -- 0 -- -- 54
2017-09-01 11:00:00 27.7 -- -- -- -- 0 -- -- 50
2017-09-01 10:00:00 25.6 -- -- -- -- 0 -- -- 59
2017-09-01 09:00:00 22.1 -- -- -- -- 0 -- -- 72
2017-09-01 08:00:00 20.4 -- -- -- -- 0 -- -- 79
2017-09-01 07:00:00 20.4 -- -- -- -- 0 -- -- 81
2017-09-01 06:00:00 20.5 -- -- -- -- 0 -- -- 75
2017-09-01 05:00:00 20.9 -- -- -- -- 0 -- -- 74
2017-09-01 04:00:00 21.2 -- -- -- -- 0 -- -- 72
2017-09-01 03:00:00 21.8 -- -- -- -- 0 -- -- 67
2017-09-01 02:00:00 22 -- -- -- -- 0 -- -- 64
2017-09-01 01:00:00 22.3 -- -- -- -- 0 -- -- 65
2017-09-01 00:00:00 23.4 -- -- -- -- 0 -- -- 59
2017-08-31 23:00:00 24.2 -- -- -- -- 0 -- -- 55
2017-08-31 22:00:00 24.8 -- -- -- -- 0 -- -- 61
2017-08-31 21:00:00 25.8 -- -- -- -- 0 -- -- 57
2017-08-31 20:00:00 27.5 -- -- -- -- 0 -- -- 49
2017-08-31 19:00:00 29.1 -- -- -- -- 0 -- -- 42
2017-08-31 18:00:00 29.8 -- -- -- -- 0 -- -- 41
2017-08-31 17:00:00 29.6 -- -- -- -- 0 -- -- 42
2017-08-31 16:00:00 30.9 -- -- -- -- 0 -- -- 37
2017-08-31 15:00:00 31.8 -- -- -- -- 0 -- -- 35
2017-08-31 14:00:00 31.6 -- -- -- -- 0 -- -- 37
2017-08-31 13:00:00 30.9 -- -- -- -- 0 -- -- 38
2017-08-31 12:00:00 29.5 -- -- -- -- 0 -- -- 40
2017-08-31 11:00:00 28 -- -- -- -- 0 -- -- 44
2017-08-31 10:00:00 24.9 -- -- -- -- 0 -- -- 55
2017-08-31 09:00:00 22.3 -- -- -- -- 0 -- -- 67
2017-08-31 08:00:00 20 -- -- -- -- 0 -- -- 73
2017-08-31 07:00:00 20.5 -- -- -- -- 0 -- -- 73
2017-08-31 06:00:00 19.7 -- -- -- -- 0 -- -- 75
2017-08-31 05:00:00 19.6 -- -- -- -- 0 -- -- 77
2017-08-31 04:00:00 19.6 -- -- -- -- 0 -- -- 76
2017-08-31 03:00:00 19.8 -- -- -- -- 0 -- -- 80
2017-08-31 02:00:00 20.2 -- -- -- -- 0 -- -- 79
2017-08-31 01:00:00 20.2 -- -- -- -- 0 -- -- 80
2017-08-31 00:00:00 20.3 -- -- -- -- 0 -- -- 80
2017-08-30 23:00:00 21.1 -- -- -- -- 0 -- -- 77
2017-08-30 22:00:00 21.5 -- -- -- -- 0 -- -- 74
2017-08-30 21:00:00 20.8 -- -- -- -- 0 -- -- 76
2017-08-30 20:00:00 21.2 -- -- -- -- 0 -- -- 75
2017-08-30 19:00:00 22.9 -- -- -- -- 0 -- -- 69
2017-08-30 18:00:00 23.7 -- -- -- -- 0 -- -- 68
2017-08-30 17:00:00 24.7 -- -- -- -- 0 -- -- 63
2017-08-30 16:00:00 26 -- -- -- -- 0 -- -- 58
2017-08-30 15:00:00 28.4 -- -- -- -- 0 -- -- 47
2017-08-30 14:00:00 28.8 -- -- -- -- 0 -- -- 42
2017-08-30 13:00:00 28.6 -- -- -- -- 0 -- -- 44
2017-08-30 12:00:00 26.7 -- -- -- -- 0 -- -- 51
2017-08-30 11:00:00 24.4 -- -- -- -- 0 -- -- 62
2017-08-30 10:00:00 21.1 -- -- -- -- 0 -- -- 76
2017-08-30 09:00:00 19.3 -- -- -- -- 0 -- -- 86
2017-08-30 08:00:00 19.5 -- -- -- -- 0 -- -- 84
2017-08-30 07:00:00 19.7 -- -- -- -- 0 -- -- 84
2017-08-30 06:00:00 19.8 -- -- -- -- 0 -- -- 80
2017-08-30 05:00:00 20.1 -- -- -- -- 0 -- -- 81
2017-08-30 04:00:00 20.4 -- -- -- -- 0 -- -- 81
2017-08-30 03:00:00 20.3 -- -- -- -- 0 -- -- 82
2017-08-30 02:00:00 19.8 -- -- -- -- 0 -- -- 81
2017-08-30 01:00:00 19.5 -- -- -- -- 0 -- -- 80
2017-08-30 00:00:00 20.3 -- -- -- -- 0 -- -- 78
2017-08-29 23:00:00 21.1 -- -- -- -- 0 -- -- 77
2017-08-29 22:00:00 21.4 -- -- -- -- 0 -- -- 79
2017-08-29 21:00:00 22.4 -- -- -- -- 0 -- -- 72
2017-08-29 20:00:00 24.4 -- -- -- -- 0 -- -- 57
2017-08-29 19:00:00 25.1 -- -- -- -- 0 -- -- 53
2017-08-29 18:00:00 25.4 -- -- -- -- 0 -- -- 49
2017-08-29 17:00:00 25.3 -- -- -- -- 0 -- -- 49
2017-08-29 16:00:00 25.8 -- -- -- -- 0 -- -- 47
2017-08-29 15:00:00 28 -- -- -- -- 0 -- -- 42
2017-08-29 14:00:00 27.4 -- -- -- -- 0 -- -- 44
2017-08-29 13:00:00 25.8 -- -- -- -- 0 -- -- 52
2017-08-29 12:00:00 24.2 -- -- -- -- 0 -- -- 56
2017-08-29 11:00:00 23.8 -- -- -- -- 0 -- -- 60
2017-08-29 10:00:00 20.4 -- -- -- -- 0 -- -- 76
2017-08-29 09:00:00 17.8 -- -- -- -- 0 -- -- 81
2017-08-29 08:00:00 17.1 -- -- -- -- 0 -- -- 81
2017-08-29 07:00:00 17.6 -- -- -- -- 0 -- -- 80
2017-08-29 06:00:00 17.6 -- -- -- -- 0 -- -- 81
2017-08-29 05:00:00 17.9 -- -- -- -- 0 -- -- 78
2017-08-29 04:00:00 18.3 -- -- -- -- 0 -- -- 74
2017-08-29 03:00:00 19 -- -- -- -- 0 -- -- 72
2017-08-29 02:00:00 19.4 -- -- -- -- 0 -- -- 71
2017-08-29 01:00:00 19.7 -- -- -- -- 0 -- -- 70
2017-08-29 00:00:00 20.4 -- -- -- -- 0 -- -- 70
2017-08-28 23:00:00 21.2 -- -- -- -- 0 -- -- 71
2017-08-28 22:00:00 22.8 -- -- -- -- 0 -- -- 65
2017-08-28 21:00:00 24 -- -- -- -- 0 -- -- 57
2017-08-28 20:00:00 26 -- -- -- -- 0 -- -- 58
2017-08-28 19:00:00 26.3 -- -- -- -- 0 -- -- 57
2017-08-28 18:00:00 26.3 -- -- -- -- 0 -- -- 58
2017-08-28 17:00:00 27 -- -- -- -- 0 -- -- 58
2017-08-28 16:00:00 26.4 -- -- -- -- 0 -- -- 63
2017-08-28 15:00:00 26.1 -- -- -- -- 0.2 -- -- 64
2017-08-28 14:00:00 25.2 -- -- -- -- 0 -- -- 72
2017-08-28 13:00:00 26.3 -- -- -- -- 0.4 -- -- 72
2017-08-28 12:00:00 24.4 -- -- -- -- 0 -- -- 86
2017-08-28 11:00:00 24.2 -- -- -- -- 0 -- -- 89
2017-08-28 10:00:00 23.6 -- -- -- -- 0.8 -- -- 93
2017-08-28 09:00:00 23.8 -- -- -- -- 0.6 -- -- 91
2017-08-28 08:00:00 23.9 -- -- -- -- 0 -- -- 88
2017-08-28 07:00:00 24.2 -- -- -- -- 0 -- -- 85
2017-08-28 06:00:00 24.5 -- -- -- -- 0 -- -- 82
2017-08-28 05:00:00 24.4 -- -- -- -- 0 -- -- 81
2017-08-28 04:00:00 24.6 -- -- -- -- 0 -- -- 80
2017-08-28 03:00:00 24.2 -- -- -- -- 0 -- -- 81
2017-08-28 02:00:00 24.6 -- -- -- -- 0 -- -- 80
2017-08-28 01:00:00 24.7 -- -- -- -- 0 -- -- 79
2017-08-28 00:00:00 24.7 -- -- -- -- 0 -- -- 78
2017-08-27 23:00:00 24.4 -- -- -- -- 0 -- -- 80
2017-08-27 22:00:00 24.9 -- -- -- -- 0 -- -- 77
2017-08-27 21:00:00 25.3 -- -- -- -- 0.2 -- -- 77
2017-08-27 20:00:00 26.6 -- -- -- -- 0 -- -- 70
2017-08-27 19:00:00 27.9 -- -- -- -- 0 -- -- 62
2017-08-27 18:00:00 29.4 -- -- -- -- 0 -- -- 58
2017-08-27 17:00:00 31.5 -- -- -- -- 0 -- -- 53
2017-08-27 16:00:00 32.4 -- -- -- -- 0 -- -- 43
2017-08-27 15:00:00 30.5 -- -- -- -- 0.2 -- -- 57
2017-08-27 14:00:00 28.5 -- -- -- -- 0 -- -- 63
2017-08-27 13:00:00 28.6 -- -- -- -- 0 -- -- 65
2017-08-27 12:00:00 26.4 -- -- -- -- 0 -- -- 76
2017-08-27 11:00:00 25.2 -- -- -- -- 0 -- -- 81
2017-08-27 10:00:00 24.3 -- -- -- -- 0 -- -- 83
2017-08-27 09:00:00 24.3 -- -- -- -- 0 -- -- 79
2017-08-27 08:00:00 22.9 -- -- -- -- 0 -- -- 85
2017-08-27 07:00:00 23.6 -- -- -- -- 0 -- -- 84
2017-08-27 06:00:00 24.1 -- -- -- -- 0 -- -- 81
2017-08-27 05:00:00 24.2 -- -- -- -- 0 -- -- 82
2017-08-27 04:00:00 24.5 -- -- -- -- 0 -- -- 75
2017-08-27 03:00:00 24 -- -- -- -- 0 -- -- 79
2017-08-27 02:00:00 24.1 -- -- -- -- 0 -- -- 82
2017-08-27 01:00:00 24.6 -- -- -- -- 0 -- -- 81
2017-08-27 00:00:00 24.8 -- -- -- -- 0 -- -- 78
2017-08-26 23:00:00 25.1 -- -- -- -- 0 -- -- 77
2017-08-26 22:00:00 25.5 -- -- -- -- 0 -- -- 68
2017-08-26 21:00:00 26 -- -- -- -- 0 -- -- 64
2017-08-26 20:00:00 28.6 -- -- -- -- 0 -- -- 57
2017-08-26 19:00:00 31.3 -- -- -- -- 0 -- -- 47
2017-08-26 18:00:00 31.4 -- -- -- -- 0 -- -- 47
2017-08-26 17:00:00 32.1 -- -- -- -- 0 -- -- 46
2017-08-26 16:00:00 34.6 -- -- -- -- 0 -- -- 30
2017-08-26 15:00:00 33.6 -- -- -- -- 0 -- -- 37
2017-08-26 14:00:00 32.7 -- -- -- -- 0 -- -- 47
2017-08-26 13:00:00 32.8 -- -- -- -- 0 -- -- 44
2017-08-26 12:00:00 30 -- -- -- -- 0 -- -- 52
2017-08-26 11:00:00 27.9 -- -- -- -- 0 -- -- 61
2017-08-26 10:00:00 26.6 -- -- -- -- 0 -- -- 62
2017-08-26 09:00:00 23.8 -- -- -- -- 0 -- -- 57
2017-08-26 08:00:00 21.7 -- -- -- -- 0 -- -- 70
2017-08-26 07:00:00 21.6 -- -- -- -- 0 -- -- 73
2017-08-26 06:00:00 21.8 -- -- -- -- 0 -- -- 78
2017-08-26 05:00:00 22.4 -- -- -- -- 0 -- -- 69
2017-08-26 04:00:00 23 -- -- -- -- 0 -- -- 70
2017-08-26 03:00:00 23.7 -- -- -- -- 0 -- -- 73
2017-08-26 02:00:00 24.7 -- -- -- -- 0 -- -- 67
2017-08-26 01:00:00 24.9 -- -- -- -- 0 -- -- 65
2017-08-26 00:00:00 25 -- -- -- -- 0 -- -- 59
2017-08-25 23:00:00 25.5 -- -- -- -- 0 -- -- 61
2017-08-25 22:00:00 26.3 -- -- -- -- 0 -- -- 58
2017-08-25 21:00:00 27.8 -- -- -- -- 0 -- -- 53
2017-08-25 20:00:00 29.6 -- -- -- -- 0 -- -- 54
2017-08-25 19:00:00 29.7 -- -- -- -- 0 -- -- 50
2017-08-25 18:00:00 29.1 -- -- -- -- 0 -- -- 52
2017-08-25 17:00:00 30.1 -- -- -- -- 0 -- -- 44
2017-08-25 16:00:00 30.7 -- -- -- -- 0 -- -- 41
2017-08-25 15:00:00 32.7 -- -- -- -- 0 -- -- 39
2017-08-25 14:00:00 32.8 -- -- -- -- 0 -- -- 43
2017-08-25 13:00:00 29.3 -- -- -- -- 0 -- -- 50
2017-08-25 12:00:00 30.3 -- -- -- -- 0 -- -- 45
2017-08-25 11:00:00 28.2 -- -- -- -- 0 -- -- 45
2017-08-25 10:00:00 25.8 -- -- -- -- 0 -- -- 48
2017-08-25 09:00:00 23.5 -- -- -- -- 0 -- -- 34
2017-08-25 08:00:00 21.9 -- -- -- -- 0 -- -- 47
2017-08-25 07:00:00 20.8 -- -- -- -- 0 -- -- 59
2017-08-25 06:00:00 20.9 -- -- -- -- 0 -- -- 65
2017-08-25 05:00:00 21 -- -- -- -- 0 -- -- 77
2017-08-25 04:00:00 21 -- -- -- -- 0 -- -- 78
2017-08-25 03:00:00 21.4 -- -- -- -- 0 -- -- 75
2017-08-25 02:00:00 22.3 -- -- -- -- 0 -- -- 74
2017-08-25 01:00:00 22.6 -- -- -- -- 0 -- -- 72
2017-08-25 00:00:00 23.5 -- -- -- -- 0 -- -- 71
2017-08-24 23:00:00 24.6 -- -- -- -- 0 -- -- 67
2017-08-24 22:00:00 25.1 -- -- -- -- 0 -- -- 62
2017-08-24 21:00:00 26 -- -- -- -- 0 -- -- 57
2017-08-24 20:00:00 28.2 -- -- -- -- 0 -- -- 46
2017-08-24 19:00:00 30.1 -- -- -- -- 0 -- -- 40
2017-08-24 18:00:00 31.5 -- -- -- -- 0 -- -- 34
2017-08-24 17:00:00 33.1 -- -- -- -- 0 -- -- 29
2017-08-24 16:00:00 32.8 -- -- -- -- 0 -- -- 30
2017-08-24 15:00:00 31.2 -- -- -- -- 0 -- -- 34
2017-08-24 14:00:00 31.1 -- -- -- -- 0 -- -- 40
2017-08-24 13:00:00 30.9 -- -- -- -- 0 -- -- 43
2017-08-24 12:00:00 30.5 -- -- -- -- 0 -- -- 41
2017-08-24 11:00:00 27.4 -- -- -- -- 0 -- -- 43
2017-08-24 10:00:00 25.4 -- -- -- -- 0 -- -- 47
2017-08-24 09:00:00 23.5 -- -- -- -- 0 -- -- 56
2017-08-24 08:00:00 20 -- -- -- -- 0 -- -- 54
2017-08-24 07:00:00 20.3 -- -- -- -- 0 -- -- 57
2017-08-24 06:00:00 20.6 -- -- -- -- 0 -- -- 57
2017-08-24 05:00:00 20.7 -- -- -- -- 0 -- -- 57
2017-08-24 04:00:00 20.9 -- -- -- -- 0 -- -- 55
2017-08-24 03:00:00 21.2 -- -- -- -- 0 -- -- 58
2017-08-24 02:00:00 21.8 -- -- -- -- 0 -- -- 62
2017-08-24 01:00:00 22.5 -- -- -- -- 0 -- -- 64
2017-08-24 00:00:00 23.2 -- -- -- -- 0 -- -- 65